My Meet Scores
Jasmine Kelly, Y.W.C.A Tumblettes-Tumblers - MyMeetScores.com
Top100 | Top Teams | Upcoming Meets | Completed Meets | Latest | Add Scores | Help| Support | Bookmark and Share

Jasmine Kelly, Y.W.C.A Tumblettes-Tumblers
Personal Bests
LevelVault BarsBeamFloorAA
48.8758.550 9.4509.05035.725
59.3258.500 8.8259.42535.300
69.2258.900 9.3509.27536.525
79.0508.200 9.1509.55034.325
Meet Scores
Date Meet Team Session Level Division Vault Bars Beam Floor AA
2019-03-08 2019 NYS Level 7 & 8 State Championship Y.W.C.A Tumblettes-Tumblers 01 7 Sr E 8.300 17 7.450 17 7.300 17 9.000 13 32.050 17
2019-02-22 Heartland Spring Classic Y.W.C.A Tumblettes-Tumblers 1 7 Older 8.550 8T 8.200 5T 7.200 10 8.500 7 32.450 7
2019-02-08 Popstar Invitational Y.W.C.A Tumblettes-Tumblers 8 7 Older 0.000 10T 7.750 8 9.000 3 7.825 10 24.575 10
2019-01-25 Kinetic Kids Invitational 2019 Y.W.C.A Tumblettes-Tumblers 7 7 Older 8.425 10 7.700 12 8.625 5 9.100 2T 33.850 6T
2019-01-11 2019 New Years Blast Y.W.C.A Tumblettes-Tumblers 5 7 Senior 8.000 12 8.050 10 9.150 3 9.125 2 34.325 9
2018-04-06 2018 New York Level 7/8 State Championship Y.W.C.A Tumblettes-Tumblers 5 7 Sr C 8.725 16 0.000 18 7.500 18 7.575 18 23.800 18
2018-03-24 Peace Love Gymnastics Invitational Y.W.C.A Tumblettes-Tumblers 8 7 Younger 9.000 5 7.850 5 6.550 6 9.075 3 32.475 6
2018-03-01 Holiday Costume Cup 2018 Y.W.C.A Tumblettes-Tumblers 2 7 Older 8.500 8 7.400 5T 8.100 8 9.550 1 33.550 6
2018-01-20 Kindlemann Winter Classic Y.W.C.A Tumblettes-Tumblers 1 7 senior 8.500 34 7.850 26T 8.025 34 9.100 10T 33.475 29
2017-12-02 I Love Gymnastics Y.W.C.A Tumblettes-Tumblers 6 7 Senior 9.050 6 7.850 8 8.050 6 9.000 5 33.950 7
2017-11-17 2017 Judges Cup Balloon Classic Y.W.C.A Tumblettes-Tumblers 4 7 14+ 8.500 27T 7.100 30 7.900 34 8.925 22T 32.425 32
2017-05-12 2017 New York Level 5 & 6 State Championships Y.W.C.A Tumblettes-Tumblers 6-5 6 Sr B 8.850 21T 8.850 6 9.075 7T 9.200 12T 35.975 10
2017-04-29 Mother's Day Madness Y.W.C.A Tumblettes-Tumblers 6 Senior 9.225 5 8.675 4 9.350 3T 9.275 5 36.525 3
2017-04-08 Springtime Classic Y.W.C.A Tumblettes-Tumblers 3 6 senior 9.075 6 8.900 4 9.000 10 9.275 9 36.250 5
2017-03-25 Peace Love Gymnastics Invitational Y.W.C.A Tumblettes-Tumblers 2 6 Older 8.900 12 8.600 7 8.550 12T 9.250 4T 35.300 5
2017-02-03 Popstar Invitational Y.W.C.A Tumblettes-Tumblers 4 6 Older 9.150 6 8.650 2 8.775 11 9.025 5 35.600 4
2017-01-13 New York Celebration Y.W.C.A Tumblettes-Tumblers 05 6 Older 9.000 6T 8.900 2 8.825 11 8.900 10T 35.625 6
2016-12-17 Solstice Celebration Y.W.C.A Tumblettes-Tumblers 5 6 Middle 8.775 12 8.800 6T 8.500 14 8.075 17 34.150 16
2016-05-13 2016 New York Level 5 & 6 State Championship Y.W.C.A Tumblettes-Tumblers 1 5 Sr C 9.325 5 7.950 14 7.700 19 8.800 7 33.775 12
2016-05-01 Peace Love Gymnastics Invitational Y.W.C.A Tumblettes-Tumblers 2 5 Older 8.850 14 8.000 15T 8.825 7 8.250 22 33.925 11
2016-02-12 Sweetheart Invitational Y.W.C.A Tumblettes-Tumblers 05 5 Sr B 8.725 7 8.400 5 8.750 8T 9.425 4 35.300 6
2016-01-22 2016 Cirque de Galaxy Y.W.C.A Tumblettes-Tumblers 10 5 11 & Over 8.875 6 7.850 11 7.400 11 8.800 6 32.925 9
2015-12-19 Solstice Celebration Y.W.C.A Tumblettes-Tumblers 3 5 Older 8.600 3T 8.500 3 7.375 8 9.025 2 33.500 3
2015-05-29 2015 New York Level 4 Downstate Championships Y.W.C.A Tumblettes-Tumblers 6 4 Sr C 8.875 12 8.550 12T 9.450 10T 8.850 16T 35.725 8
2015-05-02 Mother's Day Madness Y.W.C.A Tumblettes-Tumblers 4 Senior 8.200 14T 8.550 11T 8.800 22 8.900 16 34.450 14T
2015-03-20 Beach Party Y.W.C.A Tumblettes-Tumblers 2 4 Intermediate 8.600 10 8.300 5 8.650 5 8.550 7 34.100 5
2015-02-27 Long Island Classic Y.W.C.A Tumblettes-Tumblers E10 4 Older 7.850 7 8.550 4 7.325 15 8.925 6T 32.650 7
2015-01-31 Spirit Of America Y.W.C.A Tumblettes-Tumblers 5 4 11 & Up 7.700 13 6.600 12 7.800 12 9.050 3 31.150 12
2015-01-16 2015 Cirque de Galaxy Y.W.C.A Tumblettes-Tumblers 13 4 11 and Ove 8.550 7 6.450 11 8.300 9 8.800 6 32.100 8
2014-12-05 Kick Off Classic Y.W.C.A Tumblettes-Tumblers 4 4 Senior 8.175 8 5.750 15 8.450 12 8.125 13 30.500 15
Click here to view our personalized
"Celebrate Your Season"
2018-19 Collection

www.lazysuits.com